Time;durP1;ratioP1;P1;durP2;ratioP2;P2;SDS_P1;SDS_P2;PMS_P1;PMS_P2;Temp;Humidity;BMP_temperature;BMP_pressure;BME280_temperature;BME280_humidity;BME280_pressure;Samples;Min_cycle;Max_cycle;Signal;HPM_P1;HPM_P2
2023/04/14 00:03:02;;;;;;;3.17;2.00;;;;;;;4.64;100.00;95649.81;10457675;28;20644;-75
2023/04/14 00:08:02;;;;;;;3.80;1.70;;;;;;;4.54;100.00;95644.69;10457296;28;20552;-75
2023/04/14 00:13:02;;;;;;;2.57;1.70;;;;;;;4.42;100.00;95649.22;10457271;28;20196;-76
2023/04/14 00:18:03;;;;;;;4.70;1.90;;;;;;;4.42;100.00;95648.44;10457096;28;20227;-75
2023/04/14 00:23:03;;;;;;;4.67;1.70;;;;;;;4.35;100.00;95655.13;10455775;28;20185;-75
2023/04/14 00:28:03;;;;;;;4.37;1.80;;;;;;;4.28;100.00;95654.91;10456785;28;20675;-75
2023/04/14 00:33:04;;;;;;;4.07;2.00;;;;;;;4.17;100.00;95653.31;10456257;28;20196;-75
2023/04/14 00:38:04;;;;;;;7.00;1.80;;;;;;;4.27;100.00;95656.69;10438795;28;20269;-75
2023/04/14 00:43:04;;;;;;;5.40;1.70;;;;;;;4.30;100.00;95663.34;10455687;28;20326;-76
2023/04/14 00:48:05;;;;;;;5.20;1.80;;;;;;;4.29;100.00;95656.56;10438199;28;20188;-75
2023/04/14 00:53:05;;;;;;;3.40;1.90;;;;;;;4.23;100.00;95657.94;10438062;28;20199;-76
2023/04/14 00:58:06;;;;;;;4.00;1.90;;;;;;;4.19;100.00;95656.56;10437599;28;20219;-76
2023/04/14 01:03:08;;;;;;;4.27;2.03;;;;;;;4.18;100.00;95667.94;10454456;28;20594;-76
2023/04/14 01:08:08;;;;;;;3.80;2.03;;;;;;;4.11;100.00;95664.25;10455258;28;20187;-75
2023/04/14 01:13:22;;;;;;;4.30;2.10;;;;;;;4.13;100.00;95674.47;10436932;28;20286;-76
2023/04/14 01:18:43;;;;;;;4.60;1.90;;;;;;;4.12;100.00;95678.88;10453555;28;20273;-76
2023/04/14 01:24:04;;;;;;;6.33;2.23;;;;;;;4.11;100.00;95674.63;10454905;28;20200;-75
2023/04/14 01:29:23;;;;;;;5.47;2.10;;;;;;;4.20;100.00;95663.41;10436037;28;20250;-75
2023/04/14 01:34:37;;;;;;;2.23;1.73;;;;;;;4.19;100.00;95668.72;10436269;28;20191;-76
2023/04/14 01:39:40;;;;;;;4.20;1.90;;;;;;;4.16;100.00;95682.78;10419553;28;20688;-76
2023/04/14 01:44:41;;;;;;;4.23;1.93;;;;;;;4.18;100.00;95683.47;10410886;28;20228;-76
2023/04/14 01:49:43;;;;;;;9.87;2.13;;;;;;;4.13;100.00;95664.94;10411251;28;20268;-75
2023/04/14 01:54:45;;;;;;;3.87;2.17;;;;;;;4.21;100.00;95666.81;10394589;28;20200;-75
2023/04/14 01:59:47;;;;;;;6.00;2.10;;;;;;;4.24;100.00;95654.38;10394046;28;20590;-76
2023/04/14 02:04:48;;;;;;;6.20;2.90;;;;;;;4.29;100.00;95657.34;10377509;28;20268;-75
2023/04/14 02:09:52;;;;;;;5.23;2.00;;;;;;;4.28;100.00;95658.31;10394733;28;20271;-75
2023/04/14 02:14:54;;;;;;;3.00;1.80;;;;;;;4.37;100.00;95655.84;10376664;28;20212;-76
2023/04/14 02:19:56;;;;;;;5.07;2.30;;;;;;;4.28;100.00;95655.72;10411344;28;20224;-76
2023/04/14 02:24:56;;;;;;;6.23;2.00;;;;;;;4.22;100.00;95652.91;10377202;28;20196;-75
2023/04/14 02:29:57;;;;;;;4.77;2.50;;;;;;;4.15;100.00;95650.06;10392906;28;20181;-74
2023/04/14 02:35:05;;;;;;;4.73;2.33;;;;;;;4.17;100.00;95653.31;10392987;28;20196;-74
2023/04/14 02:40:16;;;;;;;6.53;2.60;;;;;;;4.13;100.00;95658.94;10394416;28;20212;-74
2023/04/14 02:45:21;;;;;;;5.90;2.37;;;;;;;4.04;100.00;95663.19;10433764;28;20643;-74
2023/04/14 02:50:23;;;;;;;6.40;2.60;;;;;;;4.04;100.00;95658.84;10384339;28;20196;-74
2023/04/14 02:55:44;;;;;;;4.07;2.20;;;;;;;3.88;100.00;95654.25;10392367;28;20219;-74
2023/04/14 03:00:45;;;;;;;9.47;3.27;;;;;;;3.95;100.00;95656.25;10391760;28;20728;-74
2023/04/14 03:05:47;;;;;;;5.80;2.27;;;;;;;4.09;100.00;95655.81;10422861;28;20278;-74
2023/04/14 03:10:48;;;;;;;5.43;2.13;;;;;;;4.05;100.00;95665.63;10412100;28;20186;-74
2023/04/14 03:15:51;;;;;;;7.17;3.10;;;;;;;4.14;100.00;95655.41;10413054;28;20207;-74
2023/04/14 03:20:54;;;;;;;6.93;2.80;;;;;;;4.08;100.00;95659.38;10412987;28;20187;-74
2023/04/14 03:25:56;;;;;;;5.83;2.80;;;;;;;4.07;100.00;95652.53;10412104;28;20195;-74
2023/04/14 03:31:03;;;;;;;3.40;2.37;;;;;;;4.05;100.00;95670.00;10428738;28;20193;-74
2023/04/14 03:36:14;;;;;;;7.53;2.70;;;;;;;4.10;100.00;95667.81;10429679;28;20294;-74
2023/04/14 03:41:17;;;;;;;4.30;2.43;;;;;;;4.13;100.00;95666.72;10411222;28;20331;-74
2023/04/14 03:46:17;;;;;;;6.37;3.63;;;;;;;4.14;100.00;95653.59;10428555;28;20950;-74
2023/04/14 03:51:20;;;;;;;4.53;3.20;;;;;;;3.97;100.00;95657.75;10427832;28;20199;-74
2023/04/14 03:56:21;;;;;;;6.00;2.60;;;;;;;4.09;100.00;95676.56;10428573;28;20270;-74
2023/04/14 04:01:24;;;;;;;11.63;3.60;;;;;;;4.13;100.00;95677.88;10419290;28;20195;-74
2023/04/14 04:06:26;;;;;;;7.03;3.60;;;;;;;3.92;100.00;95678.91;10423968;28;20610;-75
2023/04/14 04:11:28;;;;;;;15.60;6.60;;;;;;;3.62;100.00;95668.78;10422097;28;20219;-74
2023/04/14 04:16:31;;;;;;;15.00;6.90;;;;;;;3.82;100.00;95654.00;10439507;28;20219;-74
2023/04/14 04:21:34;;;;;;;16.13;7.13;;;;;;;3.99;100.00;95655.03;10457131;28;20246;-74
2023/04/14 04:26:35;;;;;;;9.20;6.20;;;;;;;3.95;100.00;95664.88;10438393;28;20194;-74
2023/04/14 04:31:36;;;;;;;12.53;7.03;;;;;;;4.02;100.00;95663.31;10456555;28;20186;-74
2023/04/14 04:36:37;;;;;;;12.83;6.90;;;;;;;4.08;100.00;95661.94;10438393;28;20276;-74
2023/04/14 04:41:38;;;;;;;13.87;7.57;;;;;;;4.22;100.00;95656.28;10421732;28;20264;-74
2023/04/14 04:46:42;;;;;;;14.40;7.70;;;;;;;4.25;100.00;95655.19;10438385;28;20184;-74
2023/04/14 04:51:42;;;;;;;15.93;7.10;;;;;;;4.16;100.00;95648.28;10455806;28;20198;-73
2023/04/14 04:56:43;;;;;;;10.37;6.87;;;;;;;4.20;100.00;95665.19;10437830;28;20595;-73
2023/04/14 05:01:43;;;;;;;15.87;7.30;;;;;;;4.15;100.00;95678.59;10455553;28;20271;-74
2023/04/14 05:06:43;;;;;;;25.77;17.27;;;;;;;4.13;100.00;95671.91;10455346;28;20247;-73
2023/04/14 05:11:44;;;;;;;11.43;7.80;;;;;;;4.24;100.00;95685.50;10454360;28;20200;-73
2023/04/14 05:16:44;;;;;;;13.40;7.33;;;;;;;4.31;100.00;95679.75;10455032;28;20315;-73
2023/04/14 05:21:45;;;;;;;18.57;11.23;;;;;;;4.03;100.00;95680.53;10453559;28;20687;-74
2023/04/14 05:26:45;;;;;;;16.13;7.90;;;;;;;4.19;100.00;95685.09;10454429;28;20727;-73
2023/04/14 05:31:46;;;;;;;15.47;8.90;;;;;;;4.22;100.00;95689.19;10454385;28;20192;-74
2023/04/14 05:36:46;;;;;;;15.60;9.30;;;;;;;4.26;100.00;95713.88;10454358;28;20250;-73
2023/04/14 05:41:46;;;;;;;14.07;8.33;;;;;;;4.32;100.00;95707.28;10453303;28;20320;-75
2023/04/14 05:46:47;;;;;;;16.37;9.87;;;;;;;4.33;100.00;95712.31;10454157;28;20219;-74
2023/04/14 05:51:47;;;;;;;20.70;10.87;;;;;;;4.40;100.00;95712.59;10435666;28;20195;-74
2023/04/14 05:56:48;;;;;;;26.33;13.93;;;;;;;4.47;100.00;95711.03;10452913;28;20208;-74
2023/04/14 06:01:48;;;;;;;20.90;11.33;;;;;;;4.50;100.00;95707.34;10452843;28;20278;-75
2023/04/14 06:06:48;;;;;;;20.67;11.40;;;;;;;4.54;100.00;95695.75;10452610;28;20680;-74
2023/04/14 06:11:49;;;;;;;18.53;12.60;;;;;;;4.69;100.00;95683.91;10451729;28;20570;-74
2023/04/14 06:16:49;;;;;;;17.57;11.43;;;;;;;4.70;100.00;95687.31;10452310;28;20903;-73
2023/04/14 06:21:50;;;;;;;17.83;11.97;;;;;;;4.63;100.00;95680.13;10451053;28;20282;-74
2023/04/14 06:26:51;;;;;;;25.10;14.80;;;;;;;4.78;100.00;95675.25;10451679;28;20275;-74
2023/04/14 06:31:51;;;;;;;28.07;16.13;;;;;;;4.73;100.00;95672.28;10452068;28;20191;-73
2023/04/14 06:36:51;;;;;;;18.93;11.17;;;;;;;4.81;100.00;95663.78;10451752;28;20230;-74
2023/04/14 06:41:52;;;;;;;18.80;8.80;;;;;;;4.87;100.00;95670.13;10433590;28;20259;-75
2023/04/14 06:46:52;;;;;;;15.37;9.83;;;;;;;4.70;100.00;95662.22;10451428;28;20179;-75
2023/04/14 06:51:53;;;;;;;12.90;10.17;;;;;;;4.81;100.00;95654.19;10451734;28;20240;-75
2023/04/14 06:56:53;;;;;;;15.40;9.43;;;;;;;4.80;100.00;95655.16;10434365;28;20220;-75
2023/04/14 07:01:53;;;;;;;15.03;9.03;;;;;;;4.88;100.00;95658.81;10449797;28;20237;-75
2023/04/14 07:06:58;;;;;;;12.63;9.07;;;;;;;4.74;100.00;95650.56;10450761;28;20192;-75
2023/04/14 07:12:00;;;;;;;16.27;9.37;;;;;;;4.73;100.00;95654.13;10450589;28;20192;-75
2023/04/14 07:17:00;;;;;;;20.03;10.20;;;;;;;4.77;100.00;95652.06;10450260;28;20711;-75
2023/04/14 07:22:00;;;;;;;13.53;9.70;;;;;;;4.91;100.00;95648.13;10449558;28;20188;-75
2023/04/14 07:27:01;;;;;;;14.47;10.10;;;;;;;4.98;100.00;95644.00;10449789;28;20272;-75
2023/04/14 07:32:01;;;;;;;12.90;8.20;;;;;;;5.01;100.00;95651.47;10449159;28;20195;-75
2023/04/14 07:37:02;;;;;;;15.33;9.37;;;;;;;4.97;100.00;95663.09;10455043;28;20226;-75
2023/04/14 07:42:03;;;;;;;14.60;9.00;;;;;;;4.86;100.00;95664.16;10455392;28;20635;-75
2023/04/14 07:47:03;;;;;;;18.80;10.00;;;;;;;4.88;100.00;95662.22;10456157;28;20535;-75
2023/04/14 07:52:03;;;;;;;14.67;8.47;;;;;;;4.94;100.00;95655.63;10438227;28;20234;-75
2023/04/14 07:57:04;;;;;;;9.67;6.90;;;;;;;4.92;100.00;95649.78;10456698;28;20828;-74
2023/04/14 08:02:04;;;;;;;12.87;9.33;;;;;;;4.80;100.00;95649.16;10453993;28;20196;-74
2023/04/14 08:07:05;;;;;;;13.27;9.57;;;;;;;4.83;100.00;95649.66;10454531;28;20585;-75
2023/04/14 08:12:05;;;;;;;12.60;10.37;;;;;;;4.94;100.00;95658.22;10455133;28;20287;-74
2023/04/14 08:17:05;;;;;;;16.20;10.57;;;;;;;4.83;100.00;95649.66;10455096;28;20215;-76
2023/04/14 08:22:06;;;;;;;14.30;9.37;;;;;;;4.95;100.00;95652.06;10454441;28;20266;-75
2023/04/14 08:27:06;;;;;;;13.30;9.97;;;;;;;5.08;100.00;95649.91;10454849;28;20188;-74
2023/04/14 08:32:07;;;;;;;16.07;8.43;;;;;;;5.04;100.00;95655.53;10454660;28;20218;-75
2023/04/14 08:37:07;;;;;;;14.13;9.40;;;;;;;4.79;100.00;95668.28;10455246;28;20222;-76
2023/04/14 08:42:08;;;;;;;8.07;6.13;;;;;;;4.93;100.00;95665.19;10454468;28;20235;-76
2023/04/14 08:47:11;;;;;;;9.90;4.97;;;;;;;4.98;100.00;95636.19;10453286;28;20188;-77
2023/04/14 08:52:11;;;;;;;10.43;5.33;;;;;;;5.01;100.00;95625.53;10454622;28;20268;-75
2023/04/14 08:57:13;;;;;;;7.53;4.70;;;;;;;4.73;100.00;95615.22;10453604;28;20322;-75
2023/04/14 09:02:14;;;;;;;5.07;4.53;;;;;;;4.72;100.00;95617.97;10453731;28;20183;-76
2023/04/14 09:07:15;;;;;;;4.73;3.03;;;;;;;4.47;100.00;95602.97;10436691;28;20196;-76
2023/04/14 09:12:16;;;;;;;9.40;4.30;;;;;;;4.44;100.00;95602.41;10453316;28;20196;-76
2023/04/14 09:17:16;;;;;;;5.53;4.30;;;;;;;4.54;100.00;95607.56;10453148;28;20223;-75
2023/04/14 09:22:17;;;;;;;3.03;2.60;;;;;;;4.47;100.00;95620.28;10435775;28;20660;-76
2023/04/14 09:27:18;;;;;;;6.20;5.03;;;;;;;4.46;100.00;95619.47;10434793;28;20188;-76
2023/04/14 09:32:18;;;;;;;6.07;4.50;;;;;;;4.70;100.00;95622.47;10451598;28;20211;-76
2023/04/14 09:37:20;;;;;;;7.57;5.10;;;;;;;4.50;100.00;95630.34;10451442;28;20224;-75
2023/04/14 09:42:36;;;;;;;5.73;4.10;;;;;;;4.55;100.00;95633.34;10452281;28;20278;-76
2023/04/14 09:47:36;;;;;;;5.60;4.30;;;;;;;4.58;100.00;95627.88;10452475;28;20318;-75
2023/04/14 09:52:40;;;;;;;5.00;3.77;;;;;;;4.61;100.00;95635.34;10451564;28;20217;-76
2023/04/14 09:57:41;;;;;;;4.30;3.33;;;;;;;4.51;100.00;95626.00;10451831;28;20224;-75
2023/04/14 10:02:48;;;;;;;5.13;3.50;;;;;;;4.53;100.00;95611.91;10433148;28;20200;-75
2023/04/14 10:07:48;;;;;;;18.00;9.77;;;;;;;4.65;100.00;95604.75;10433345;28;20188;-75
2023/04/14 10:12:51;;;;;;;10.60;6.60;;;;;;;4.77;100.00;95615.72;10451191;28;20300;-75
2023/04/14 10:17:52;;;;;;;5.60;4.57;;;;;;;4.52;100.00;95625.84;10450921;28;20258;-75
2023/04/14 10:22:53;;;;;;;4.20;3.80;;;;;;;4.62;100.00;95612.81;10450042;28;20192;-75
2023/04/14 10:27:55;;;;;;;6.40;4.03;;;;;;;4.50;100.00;95609.59;10448904;28;20188;-75
2023/04/14 10:32:56;;;;;;;5.53;3.30;;;;;;;4.48;100.00;95603.75;10444010;28;20192;-75
2023/04/14 10:37:56;;;;;;;3.90;3.50;;;;;;;4.60;100.00;95610.38;10442836;28;20215;-75
2023/04/14 10:42:57;;;;;;;3.83;3.20;;;;;;;4.62;100.00;95607.63;10447231;28;20691;-75
2023/04/14 10:47:58;;;;;;;5.37;4.00;;;;;;;4.63;100.00;95601.50;10447612;28;20770;-75
2023/04/14 10:53:05;;;;;;;4.70;4.13;;;;;;;4.62;100.00;95598.09;10427470;28;20214;-75
2023/04/14 10:58:05;;;;;;;5.43;4.57;;;;;;;4.54;100.00;95595.41;10449784;28;20255;-75
2023/04/14 11:03:16;;;;;;;6.23;4.73;;;;;;;4.67;100.00;95592.47;10449561;28;20315;-75
2023/04/14 11:08:35;;;;;;;3.50;3.20;;;;;;;4.88;100.00;95584.34;10448885;28;20196;-75
2023/04/14 11:13:37;;;;;;;4.73;3.83;;;;;;;4.77;100.00;95579.41;10449266;28;20190;-75
2023/04/14 11:18:41;;;;;;;4.03;3.30;;;;;;;4.76;100.00;95572.56;10431395;28;20261;-75
2023/04/14 11:23:42;;;;;;;3.97;3.30;;;;;;;4.77;100.00;95576.81;10448145;28;20202;-74
2023/04/14 11:28:44;;;;;;;4.60;3.60;;;;;;;4.59;100.00;95569.03;10449724;28;20534;-74
2023/04/14 11:33:45;;;;;;;3.37;3.07;;;;;;;4.63;100.00;95560.00;10449219;28;20192;-74
2023/04/14 11:38:46;;;;;;;4.03;2.80;;;;;;;4.64;100.00;95578.00;10448663;28;20231;-74
2023/04/14 11:43:47;;;;;;;4.40;3.47;;;;;;;4.71;100.00;95564.44;10430626;28;20239;-74
2023/04/14 11:48:53;;;;;;;5.63;3.37;;;;;;;4.75;100.00;95560.59;10447318;28;20245;-74
2023/04/14 11:53:58;;;;;;;4.03;3.40;;;;;;;4.78;100.00;95549.91;10449348;28;20219;-74
2023/04/14 11:59:03;;;;;;;4.90;3.87;;;;;;;4.77;100.00;95550.88;10448352;28;20220;-74
2023/04/14 12:04:05;;;;;;;3.60;3.30;;;;;;;4.75;100.00;95555.41;10448053;28;20192;-75
2023/04/14 12:09:07;;;;;;;4.93;4.43;;;;;;;4.88;100.00;95557.59;10445087;28;20192;-74
2023/04/14 12:14:08;;;;;;;6.60;4.60;;;;;;;4.92;100.00;95549.38;10425691;28;20195;-73
2023/04/14 12:19:08;;;;;;;8.63;5.53;;;;;;;4.80;100.00;95556.56;10436081;28;20212;-73
2023/04/14 12:24:09;;;;;;;7.37;5.60;;;;;;;4.67;100.00;95547.53;10452304;28;20184;-75
2023/04/14 12:29:12;;;;;;;6.50;5.10;;;;;;;4.82;100.00;95535.66;10454849;28;20188;-74
2023/04/14 12:34:13;;;;;;;6.30;5.47;;;;;;;4.93;100.00;95540.63;10454321;28;20235;-75
2023/04/14 12:39:17;;;;;;;6.13;5.53;;;;;;;5.11;100.00;95540.56;10454982;28;20651;-82
2023/04/14 12:44:19;;;;;;;6.60;5.90;;;;;;;5.21;100.00;95537.91;10453643;28;20262;-76
2023/04/14 12:49:30;;;;;;;6.47;5.77;;;;;;;5.45;100.00;95539.00;10437710;28;20187;-75
2023/04/14 12:55:11;;;;;;;7.67;5.73;;;;;;;5.52;100.00;95534.84;10453853;28;20203;-75
2023/04/14 13:00:12;;;;;;;5.73;4.90;;;;;;;5.28;100.00;95525.94;10453768;28;20215;-74
2023/04/14 13:05:13;;;;;;;5.93;4.47;;;;;;;5.07;100.00;95520.25;10454030;28;20195;-74
2023/04/14 13:10:13;;;;;;;4.87;4.20;;;;;;;5.23;100.00;95520.38;10453070;28;20192;-74
2023/04/14 13:20:57;;;;;;;5.10;4.60;;;;;;;4.98;100.00;95509.03;10430284;28;20210;-75
2023/04/14 13:25:58;;;;;;;6.73;5.13;;;;;;;4.97;100.00;95505.59;10453148;28;20188;-74
2023/04/14 13:30:58;;;;;;;11.70;7.23;;;;;;;5.14;100.00;95510.91;10452410;28;20675;-74
2023/04/14 13:36:00;;;;;;;18.17;8.10;;;;;;;5.12;100.00;95511.06;10452784;28;20281;-74
2023/04/14 13:41:01;;;;;;;18.97;9.23;;;;;;;5.39;100.00;95505.84;10452138;28;20235;-75
2023/04/14 13:46:01;;;;;;;12.97;7.27;;;;;;;5.30;100.00;95499.81;10451959;28;20788;-74
2023/04/14 13:51:02;;;;;;;8.60;6.53;;;;;;;5.48;100.00;95503.16;10451730;28;20318;-74
2023/04/14 13:56:04;;;;;;;6.13;5.53;;;;;;;5.37;100.00;95498.22;10452247;28;20772;-74
2023/04/14 14:01:11;;;;;;;5.53;5.00;;;;;;;5.25;100.00;95502.84;10451306;28;20253;-74
2023/04/14 14:06:13;;;;;;;6.40;5.30;;;;;;;5.35;100.00;95506.16;10451413;28;20180;-74
2023/04/14 14:11:13;;;;;;;6.23;5.63;;;;;;;5.44;100.00;95501.03;10451552;28;20668;-75
2023/04/14 14:16:13;;;;;;;6.80;6.10;;;;;;;5.36;100.00;95502.63;10450279;28;20227;-75
2023/04/14 14:21:14;;;;;;;5.47;4.97;;;;;;;5.43;100.00;95502.00;10451212;28;20199;-74
2023/04/14 14:26:14;;;;;;;6.53;5.60;;;;;;;5.35;100.00;95508.75;10450923;28;20250;-75
2023/04/14 14:31:15;;;;;;;6.63;5.70;;;;;;;5.35;100.00;95515.75;10450658;28;20191;-75
2023/04/14 14:36:15;;;;;;;6.03;5.43;;;;;;;5.23;100.00;95514.38;10450697;28;20234;-75
2023/04/14 14:41:16;;;;;;;5.67;5.07;;;;;;;5.35;100.00;95515.75;10449491;28;20252;-75
2023/04/14 14:46:16;;;;;;;5.70;5.20;;;;;;;5.40;100.00;95520.47;10430442;28;20250;-75
2023/04/14 14:51:16;;;;;;;7.07;5.97;;;;;;;5.38;100.00;95520.63;10436154;28;20192;-75
2023/04/14 14:56:17;;;;;;;6.30;5.10;;;;;;;5.42;100.00;95518.53;10447628;28;20216;-74
2023/04/14 15:01:17;;;;;;;5.30;4.40;;;;;;;5.27;100.00;95516.53;10449090;28;20184;-76
2023/04/14 15:06:17;;;;;;;6.33;5.07;;;;;;;5.28;100.00;95515.56;10448773;28;20184;-76
2023/04/14 15:11:18;;;;;;;5.20;4.70;;;;;;;5.37;100.00;95521.59;10449444;28;20187;-76
2023/04/14 15:16:18;;;;;;;5.40;4.90;;;;;;;5.25;100.00;95523.63;10449188;28;20254;-75
2023/04/14 15:21:22;;;;;;;5.30;4.80;;;;;;;5.36;100.00;95525.97;10447158;28;20924;-76
2023/04/14 15:26:22;;;;;;;5.27;4.77;;;;;;;5.45;100.00;95533.81;10430336;28;20644;-75
2023/04/14 15:31:22;;;;;;;4.53;4.13;;;;;;;5.29;100.00;95527.56;10448087;28;20203;-74
2023/04/14 15:36:23;;;;;;;4.20;3.83;;;;;;;5.41;100.00;95533.31;10449156;28;20334;-75
2023/04/14 15:41:24;;;;;;;4.17;3.77;;;;;;;5.24;100.00;95542.78;10447933;28;20240;-74
2023/04/14 15:46:24;;;;;;;4.27;3.87;;;;;;;5.22;100.00;95536.09;10447824;28;20187;-75
2023/04/14 15:51:25;;;;;;;6.73;4.63;;;;;;;5.32;100.00;95537.63;10430983;28;20322;-75
2023/04/14 15:56:25;;;;;;;4.50;4.10;;;;;;;5.26;100.00;95533.06;10453347;28;20211;-75
2023/04/14 16:02:15;;;;;;;5.20;4.70;;;;;;;5.36;100.00;95538.97;10456087;28;20302;-76
2023/04/14 16:07:15;;;;;;;5.27;4.50;;;;;;;5.45;100.00;95544.19;10445542;28;20614;-74
2023/04/14 16:12:16;;;;;;;5.07;4.60;;;;;;;5.25;100.00;95541.00;10439713;28;20200;-74
2023/04/14 16:17:16;;;;;;;5.93;5.37;;;;;;;5.29;100.00;95543.13;10457480;28;20223;-75
2023/04/14 16:22:17;;;;;;;6.43;5.27;;;;;;;5.27;100.00;95541.69;10457402;28;20766;-75
2023/04/14 16:27:17;;;;;;;5.97;5.37;;;;;;;5.39;100.00;95542.22;10456779;28;20207;-75
2023/04/14 16:32:18;;;;;;;5.80;5.30;;;;;;;5.33;100.00;95535.88;10456666;28;20202;-74
2023/04/14 16:37:19;;;;;;;5.60;5.10;;;;;;;5.15;100.00;95534.13;10456706;28;20224;-74
2023/04/14 16:42:22;;;;;;;6.50;5.90;;;;;;;5.18;100.00;95544.19;10456037;28;20239;-74
2023/04/14 16:47:23;;;;;;;6.77;6.07;;;;;;;5.03;100.00;95545.72;10456580;28;20238;-74
2023/04/14 16:52:25;;;;;;;8.70;7.80;;;;;;;5.12;100.00;95544.00;10456069;28;20600;-74
2023/04/14 16:57:26;;;;;;;7.37;6.67;;;;;;;5.13;100.00;95546.44;10455182;28;20700;-75
2023/04/14 17:02:26;;;;;;;6.37;5.73;;;;;;;5.13;100.00;95550.81;10455199;28;20188;-74
2023/04/14 17:07:27;;;;;;;7.17;6.47;;;;;;;5.01;100.00;95550.25;10454334;28;20196;-74
2023/04/14 17:12:27;;;;;;;6.90;6.20;;;;;;;5.02;100.00;95557.06;10455272;28;20194;-74
2023/04/14 17:17:27;;;;;;;8.37;7.13;;;;;;;4.94;100.00;95544.03;10454680;28;20211;-74
2023/04/14 17:22:28;;;;;;;8.23;7.30;;;;;;;4.87;100.00;95551.59;10454974;28;20260;-74
2023/04/14 17:27:28;;;;;;;9.23;7.73;;;;;;;4.91;100.00;95555.50;10454676;28;20253;-74
2023/04/14 17:32:28;;;;;;;8.00;7.20;;;;;;;4.91;100.00;95565.09;10454303;28;20188;-74
2023/04/14 17:37:29;;;;;;;9.03;8.13;;;;;;;4.89;100.00;95567.84;10454208;28;20219;-73
2023/04/14 17:42:30;;;;;;;9.13;8.23;;;;;;;4.88;100.00;95560.19;10453418;28;20758;-74
2023/04/14 17:47:36;;;;;;;7.90;6.90;;;;;;;4.78;100.00;95563.69;10453084;28;20231;-74
2023/04/14 17:52:36;;;;;;;7.73;6.93;;;;;;;4.77;100.00;95563.84;10452704;28;20258;-74
2023/04/14 17:57:37;;;;;;;8.70;7.50;;;;;;;4.80;100.00;95563.53;10452271;28;20560;-74
2023/04/14 18:02:38;;;;;;;8.33;7.20;;;;;;;4.68;100.00;95570.72;10452095;28;20219;-74
2023/04/14 18:07:40;;;;;;;15.63;11.13;;;;;;;4.66;100.00;95567.47;10452313;28;20195;-74
2023/04/14 18:12:40;;;;;;;11.13;9.57;;;;;;;4.62;100.00;95566.97;10451904;28;20199;-74
2023/04/14 18:17:41;;;;;;;8.87;7.77;;;;;;;4.71;100.00;95573.03;10434076;28;20691;-74
2023/04/14 18:22:42;;;;;;;10.93;8.90;;;;;;;4.63;100.00;95571.16;10451363;28;20648;-73
2023/04/14 18:27:42;;;;;;;9.87;8.83;;;;;;;4.67;100.00;95578.66;10451594;28;20263;-74
2023/04/14 18:32:43;;;;;;;10.83;9.70;;;;;;;4.62;100.00;95590.31;10451242;28;20280;-74
2023/04/14 18:37:45;;;;;;;11.17;9.37;;;;;;;4.59;100.00;95592.38;10450922;28;20211;-74
2023/04/14 18:42:45;;;;;;;9.87;8.43;;;;;;;4.63;100.00;95584.13;10450421;28;20243;-74
2023/04/14 18:47:46;;;;;;;9.70;8.27;;;;;;;4.69;100.00;95584.53;10450891;28;20220;-73
2023/04/14 18:52:46;;;;;;;10.70;9.60;;;;;;;4.66;100.00;95582.22;10450470;28;20222;-73
2023/04/14 18:57:47;;;;;;;9.77;8.27;;;;;;;4.73;100.00;95578.06;10450349;28;20343;-73
2023/04/14 19:02:48;;;;;;;8.23;7.43;;;;;;;4.71;100.00;95582.59;10449913;28;20195;-75
2023/04/14 19:07:48;;;;;;;12.57;7.93;;;;;;;4.63;100.00;95573.75;10449973;28;20254;-75
2023/04/14 19:12:49;;;;;;;9.33;7.90;;;;;;;4.70;100.00;95575.75;10449942;28;20196;-74
2023/04/14 19:17:49;;;;;;;8.40;7.50;;;;;;;4.53;100.00;95583.38;10432290;28;20310;-75
2023/04/14 19:22:49;;;;;;;107.13;66.67;;;;;;;4.57;100.00;95586.50;10449774;28;20191;-74
2023/04/14 19:27:50;;;;;;;8.50;7.20;;;;;;;4.59;100.00;95580.19;10449986;28;20184;-73
2023/04/14 19:32:52;;;;;;;14.10;10.60;;;;;;;4.52;100.00;95574.00;10458370;28;20199;-74
2023/04/14 19:37:54;;;;;;;10.43;7.30;;;;;;;4.53;100.00;95569.59;10457722;28;20688;-74
2023/04/14 19:42:55;;;;;;;9.00;7.50;;;;;;;4.52;100.00;95579.19;10457595;28;20235;-74
2023/04/14 19:47:55;;;;;;;8.87;7.83;;;;;;;4.61;100.00;95567.13;10457699;28;20913;-74
2023/04/14 19:52:55;;;;;;;8.97;7.93;;;;;;;4.60;100.00;95558.50;10457324;28;20222;-74
2023/04/14 19:57:56;;;;;;;7.17;6.47;;;;;;;4.56;100.00;95558.94;10457319;28;20224;-74
2023/04/14 20:02:57;;;;;;;8.37;6.90;;;;;;;4.60;100.00;95550.72;10456382;28;20188;-73
2023/04/14 20:07:58;;;;;;;8.93;7.37;;;;;;;4.69;100.00;95548.22;10457106;28;20191;-74
2023/04/14 20:12:58;;;;;;;8.43;6.50;;;;;;;4.69;100.00;95533.44;10456392;28;20192;-73
2023/04/14 20:18:00;;;;;;;6.67;5.90;;;;;;;4.67;100.00;95529.38;10456614;28;20310;-74
2023/04/14 20:23:00;;;;;;;6.77;5.50;;;;;;;4.56;100.00;95536.41;10455943;28;20716;-73
2023/04/14 20:28:00;;;;;;;5.33;4.83;;;;;;;4.53;100.00;95533.31;10456418;28;20215;-74
2023/04/14 20:33:04;;;;;;;5.87;4.93;;;;;;;4.63;100.00;95528.88;10421525;28;20196;-74
2023/04/14 20:38:05;;;;;;;5.77;5.03;;;;;;;4.55;100.00;95516.63;10455391;28;20220;-74
2023/04/14 20:43:06;;;;;;;4.80;4.30;;;;;;;4.61;100.00;95516.03;10453902;28;20239;-74
2023/04/14 20:48:06;;;;;;;4.93;4.43;;;;;;;4.56;100.00;95513.06;10435878;28;20254;-74
2023/04/14 20:53:07;;;;;;;4.73;4.23;;;;;;;4.45;100.00;95508.91;10454774;28;20641;-74
2023/04/14 20:58:08;;;;;;;4.30;3.80;;;;;;;4.55;100.00;95508.84;10454996;28;20673;-74
2023/04/14 21:03:08;;;;;;;3.87;3.57;;;;;;;4.52;100.00;95511.75;10454269;28;20311;-74
2023/04/14 21:08:08;;;;;;;3.70;3.40;;;;;;;4.54;100.00;95515.00;10454514;28;20237;-75
2023/04/14 21:13:09;;;;;;;4.73;4.10;;;;;;;4.51;100.00;95511.91;10454428;28;20320;-74
2023/04/14 21:18:10;;;;;;;4.70;4.23;;;;;;;4.49;100.00;95506.84;10453967;28;20580;-75
2023/04/14 21:23:11;;;;;;;5.67;3.87;;;;;;;4.45;100.00;95510.69;10454589;28;20191;-75
2023/04/14 21:28:11;;;;;;;4.20;3.70;;;;;;;4.44;100.00;95514.25;10454380;28;20551;-75
2023/04/14 21:33:12;;;;;;;3.93;3.50;;;;;;;4.40;100.00;95513.75;10436486;28;20676;-75
2023/04/14 21:38:12;;;;;;;4.43;3.83;;;;;;;4.40;100.00;95507.75;10453838;28;20691;-74
2023/04/14 21:43:13;;;;;;;4.73;4.03;;;;;;;4.47;100.00;95513.94;10453644;28;20294;-75
2023/04/14 21:48:13;;;;;;;5.07;3.40;;;;;;;4.50;100.00;95513.66;10453662;28;20555;-75
2023/04/14 21:53:14;;;;;;;3.53;3.23;;;;;;;4.49;100.00;95516.41;10453426;28;20595;-75
2023/04/14 21:58:14;;;;;;;4.97;3.60;;;;;;;4.45;100.00;95513.28;10451634;28;20583;-76
2023/04/14 22:03:15;;;;;;;4.43;3.27;;;;;;;4.50;100.00;95513.66;10450083;28;20188;-75
2023/04/14 22:08:17;;;;;;;4.23;3.40;;;;;;;4.46;100.00;95507.16;10451054;28;20195;-75
2023/04/14 22:13:17;;;;;;;4.40;3.63;;;;;;;4.44;100.00;95499.53;10452578;28;20664;-75
2023/04/14 22:18:18;;;;;;;3.27;3.00;;;;;;;4.38;100.00;95499.28;10452194;28;20227;-75
2023/04/14 22:23:18;;;;;;;2.97;2.77;;;;;;;4.44;100.00;95496.09;10452614;28;20195;-75
2023/04/14 22:28:18;;;;;;;2.60;2.40;;;;;;;4.42;100.00;95496.25;10452539;28;20192;-75
2023/04/14 22:33:19;;;;;;;2.43;2.23;;;;;;;4.47;100.00;95488.03;10452121;28;20644;-75
2023/04/14 22:38:19;;;;;;;1.90;1.80;;;;;;;4.52;100.00;95485.81;10452127;28;20692;-75
2023/04/14 22:43:19;;;;;;;2.33;2.13;;;;;;;4.43;100.00;95473.75;10450577;28;20692;-75
2023/04/14 22:48:20;;;;;;;1.77;1.67;;;;;;;4.43;100.00;95478.94;10451247;28;20184;-75
2023/04/14 22:53:21;;;;;;;2.03;1.83;;;;;;;4.46;100.00;95471.66;10451810;28;20663;-75
2023/04/14 22:58:22;;;;;;;2.00;1.80;;;;;;;4.42;100.00;95466.91;10450848;28;20335;-75
2023/04/14 23:03:23;;;;;;;2.10;1.90;;;;;;;4.44;100.00;95462.38;10450858;28;20287;-75
2023/04/14 23:08:23;;;;;;;1.70;1.60;;;;;;;4.43;100.00;95460.78;10451078;28;20251;-75
2023/04/14 23:13:24;;;;;;;1.60;1.50;;;;;;;4.47;100.00;95462.09;10450825;28;20199;-75
2023/04/14 23:18:26;;;;;;;1.47;1.37;;;;;;;4.35;100.00;95458.09;10449988;28;20774;-75
2023/04/14 23:23:27;;;;;;;1.87;1.60;;;;;;;4.38;100.00;95457.81;10449366;28;20218;-76